East Rockland Key, Florida
Current Conditions -  °F | °C
As of 6:53 AM on Friday 24 Oct 2014 (Local Time) from KNQX Reporting Station
Overcast Overcast  
Wind Chill: 75°   Ceiling: 1000
Heat Index: 75°   Visibility: 10mi
Dew Point: 72°   Wind: 16mph
Humidity: 90%   Direction: 40°NE
Pressure: 29.81"   Gusts: NA
Location:  24.5796°N, 81.6849°W
Report Text: KNQX 241053Z 04014KT 10SM BKN010 BKN030 OVC060 24/22 A2981 RMK AO2 SLP093 T02390222 $
Loading
Personal Weather Stations






























Interactive Weather Map
Tropical Storm Tracking
New forecast layout! Learn more

10-Day Weather Forecast

Advertisements
Track Severe Weather on mobile